logo
Search for airport 
image banner adimage banner adimage banner ad
image banner ad

YMDA - Mundubbera

Located in Mundubbera, Australia

ICAO - YMDA, IATA -

Data provided by Airmate  

General information

Coordinates: S25°35'52" E151°19'8"
Elevation is 400 feet MSL.
Magnetic variation is 10° East
View others Airports in Queensland

Operational data

Special qualification required
Current time UTC:
Current local time:
Weather at : - ( 0 km )
METAR: K40B 242016Z AUTO VRB05G20KT 15/06 A2966 RMK AO1 SLP041 T01520060 53013
View NOTAMs / SUP AIP / TFR affecting this airport [VIEW]
Communications frequencies: [VIEW]

Runways:

RWY identifierQFULength (ft)Width (ft)SurfaceLDA (ft)
17393775UNK
35393775UNK

Airport contact information

Address: Mundubbera Australia

Satellite view of YMDA